sensor_id;sensor_type;location;lat;lon;timestamp;pressure;altitude;pressure_sealevel;temperature;humidity
13235;BME280;6683;48.506;9.050;2022-08-19T00:01:43;97647.53;;;23.43;60.49
13235;BME280;6683;48.506;9.050;2022-08-19T00:04:45;97664.50;;;23.44;60.50
13235;BME280;6683;48.506;9.050;2022-08-19T00:07:51;97652.94;;;23.43;60.69
13235;BME280;6683;48.506;9.050;2022-08-19T00:10:53;97652.94;;;23.43;60.93
13235;BME280;6683;48.506;9.050;2022-08-19T00:13:56;97655.91;;;23.42;60.86
13235;BME280;6683;48.506;9.050;2022-08-19T00:17:00;97647.31;;;23.40;60.68
13235;BME280;6683;48.506;9.050;2022-08-19T00:20:05;97641.09;;;23.39;60.65
13235;BME280;6683;48.506;9.050;2022-08-19T00:23:07;97627.94;;;23.38;60.76
13235;BME280;6683;48.506;9.050;2022-08-19T00:26:11;97633.09;;;23.34;60.90
13235;BME280;6683;48.506;9.050;2022-08-19T00:29:16;97631.47;;;23.28;60.76
13235;BME280;6683;48.506;9.050;2022-08-19T00:32:21;97635.28;;;23.22;60.96
13235;BME280;6683;48.506;9.050;2022-08-19T00:35:23;97624.28;;;23.19;60.80
13235;BME280;6683;48.506;9.050;2022-08-19T00:38:26;97640.19;;;23.15;61.00
13235;BME280;6683;48.506;9.050;2022-08-19T00:41:30;97651.81;;;23.11;61.26
13235;BME280;6683;48.506;9.050;2022-08-19T00:44:32;97656.66;;;23.09;61.55
13235;BME280;6683;48.506;9.050;2022-08-19T00:47:37;97661.53;;;23.07;61.55
13235;BME280;6683;48.506;9.050;2022-08-19T00:50:42;97657.19;;;23.05;61.49
13235;BME280;6683;48.506;9.050;2022-08-19T00:53:45;97660.19;;;23.04;61.50
13235;BME280;6683;48.506;9.050;2022-08-19T00:56:48;97652.41;;;23.02;61.43
13235;BME280;6683;48.506;9.050;2022-08-19T00:59:54;97651.88;;;23.00;61.30
13235;BME280;6683;48.506;9.050;2022-08-19T01:02:59;97646.75;;;22.99;61.79
13235;BME280;6683;48.506;9.050;2022-08-19T01:06:01;97656.22;;;22.96;61.54
13235;BME280;6683;48.506;9.050;2022-08-19T01:09:05;97643.56;;;22.92;61.53
13235;BME280;6683;48.506;9.050;2022-08-19T01:12:08;97641.72;;;22.87;61.65
13235;BME280;6683;48.506;9.050;2022-08-19T01:15:16;97635.03;;;22.80;61.36
13235;BME280;6683;48.506;9.050;2022-08-19T01:18:21;97648.22;;;22.76;61.72
13235;BME280;6683;48.506;9.050;2022-08-19T01:21:30;97638.28;;;22.72;61.96
13235;BME280;6683;48.506;9.050;2022-08-19T01:24:35;97641.84;;;22.67;61.90
13235;BME280;6683;48.506;9.050;2022-08-19T01:27:39;97644.25;;;22.64;62.00
13235;BME280;6683;48.506;9.050;2022-08-19T01:30:41;97644.00;;;22.60;62.01
13235;BME280;6683;48.506;9.050;2022-08-19T01:33:45;97644.53;;;22.57;62.04
13235;BME280;6683;48.506;9.050;2022-08-19T01:36:48;97642.69;;;22.53;62.36
13235;BME280;6683;48.506;9.050;2022-08-19T01:39:52;97639.19;;;22.47;62.11
13235;BME280;6683;48.506;9.050;2022-08-19T01:42:56;97641.63;;;22.44;62.25
13235;BME280;6683;48.506;9.050;2022-08-19T01:45:59;97644.34;;;22.39;62.32
13235;BME280;6683;48.506;9.050;2022-08-19T01:49:03;97644.09;;;22.35;62.65
13235;BME280;6683;48.506;9.050;2022-08-19T01:52:06;97641.16;;;22.32;62.64
13235;BME280;6683;48.506;9.050;2022-08-19T01:55:14;97644.66;;;22.27;62.82
13235;BME280;6683;48.506;9.050;2022-08-19T01:58:24;97644.13;;;22.25;62.54
13235;BME280;6683;48.506;9.050;2022-08-19T02:01:30;97639.81;;;22.24;62.48
13235;BME280;6683;48.506;9.050;2022-08-19T02:04:35;97632.31;;;22.21;62.48
13235;BME280;6683;48.506;9.050;2022-08-19T02:07:39;97631.78;;;22.19;62.71
13235;BME280;6683;48.506;9.050;2022-08-19T02:10:44;97634.47;;;22.14;62.66
13235;BME280;6683;48.506;9.050;2022-08-19T02:13:47;97639.31;;;22.12;62.83
13235;BME280;6683;48.506;9.050;2022-08-19T02:16:50;97644.75;;;22.07;63.08
13235;BME280;6683;48.506;9.050;2022-08-19T02:19:52;97645.28;;;22.04;62.83
13235;BME280;6683;48.506;9.050;2022-08-19T02:22:55;97640.97;;;22.03;63.30
13235;BME280;6683;48.506;9.050;2022-08-19T02:25:58;97640.41;;;22.01;63.42
13235;BME280;6683;48.506;9.050;2022-08-19T02:29:01;97630.47;;;22.01;62.96
13235;BME280;6683;48.506;9.050;2022-08-19T02:32:03;97620.00;;;22.00;62.95
13235;BME280;6683;48.506;9.050;2022-08-19T02:35:07;97621.88;;;21.99;63.24
13235;BME280;6683;48.506;9.050;2022-08-19T02:38:10;97614.09;;;21.98;62.91
13235;BME280;6683;48.506;9.050;2022-08-19T02:41:32;97619.25;;;21.94;62.73
13235;BME280;6683;48.506;9.050;2022-08-19T02:44:34;97609.56;;;21.93;63.18
13235;BME280;6683;48.506;9.050;2022-08-19T02:47:37;97611.72;;;21.91;63.29
13235;BME280;6683;48.506;9.050;2022-08-19T02:50:40;97613.06;;;21.89;63.51
13235;BME280;6683;48.506;9.050;2022-08-19T02:53:43;97626.47;;;21.89;63.29
13235;BME280;6683;48.506;9.050;2022-08-19T02:56:47;97628.34;;;21.88;63.60
13235;BME280;6683;48.506;9.050;2022-08-19T02:59:49;97626.47;;;21.89;63.71
13235;BME280;6683;48.506;9.050;2022-08-19T03:02:51;97630.25;;;21.88;63.95
13235;BME280;6683;48.506;9.050;2022-08-19T03:06:08;97637.22;;;21.89;63.84
13235;BME280;6683;48.506;9.050;2022-08-19T03:09:11;97630.25;;;21.88;64.08
13235;BME280;6683;48.506;9.050;2022-08-19T03:12:15;97629.44;;;21.87;64.12
13235;BME280;6683;48.506;9.050;2022-08-19T03:15:18;97629.16;;;21.89;63.97
13235;BME280;6683;48.506;9.050;2022-08-19T03:18:20;97625.41;;;21.90;64.10
13235;BME280;6683;48.506;9.050;2022-08-19T03:21:25;97622.75;;;21.90;64.39
13235;BME280;6683;48.506;9.050;2022-08-19T03:24:28;97621.91;;;21.89;63.86
13235;BME280;6683;48.506;9.050;2022-08-19T03:27:32;97619.50;;;21.88;64.33
13235;BME280;6683;48.506;9.050;2022-08-19T03:30:35;97621.91;;;21.89;64.35
13235;BME280;6683;48.506;9.050;2022-08-19T03:33:38;97627.56;;;21.88;64.25
13235;BME280;6683;48.506;9.050;2022-08-19T03:36:41;97621.91;;;21.89;64.50
13235;BME280;6683;48.506;9.050;2022-08-19T03:39:43;97625.66;;;21.88;64.04
13235;BME280;6683;48.506;9.050;2022-08-19T03:42:47;97627.81;;;21.86;64.13
13235;BME280;6683;48.506;9.050;2022-08-19T03:45:59;97623.81;;;21.84;64.06
13235;BME280;6683;48.506;9.050;2022-08-19T03:49:04;97624.88;;;21.83;64.38
13235;BME280;6683;48.506;9.050;2022-08-19T03:52:08;97629.44;;;21.82;64.53
13235;BME280;6683;48.506;9.050;2022-08-19T03:55:10;97642.09;;;21.82;64.42
13235;BME280;6683;48.506;9.050;2022-08-19T03:58:14;97649.31;;;21.81;64.73
13235;BME280;6683;48.506;9.050;2022-08-19T04:01:20;97646.63;;;21.81;64.48
13235;BME280;6683;48.506;9.050;2022-08-19T04:04:24;97643.69;;;21.83;64.72
13235;BME280;6683;48.506;9.050;2022-08-19T04:07:27;97640.44;;;21.81;64.58
13235;BME280;6683;48.506;9.050;2022-08-19T04:10:29;97635.63;;;21.78;64.42
13235;BME280;6683;48.506;9.050;2022-08-19T04:13:36;97641.81;;;21.73;64.32
13235;BME280;6683;48.506;9.050;2022-08-19T04:16:39;97636.69;;;21.72;64.61
13235;BME280;6683;48.506;9.050;2022-08-19T04:19:41;97634.28;;;21.70;64.63
13235;BME280;6683;48.506;9.050;2022-08-19T04:22:44;97628.09;;;21.70;64.38
13235;BME280;6683;48.506;9.050;2022-08-19T04:25:46;97622.19;;;21.68;64.38
13235;BME280;6683;48.506;9.050;2022-08-19T04:28:51;97627.03;;;21.66;64.74
13235;BME280;6683;48.506;9.050;2022-08-19T04:31:55;97624.09;;;21.62;64.65
13235;BME280;6683;48.506;9.050;2022-08-19T04:34:59;97637.53;;;21.62;64.23
13235;BME280;6683;48.506;9.050;2022-08-19T04:38:01;97640.22;;;21.62;64.58
13235;BME280;6683;48.506;9.050;2022-08-19T04:41:04;97642.06;;;21.62;64.71
13235;BME280;6683;48.506;9.050;2022-08-19T04:44:26;97633.75;;;21.58;64.50
13235;BME280;6683;48.506;9.050;2022-08-19T04:47:31;97642.63;;;21.59;64.73
13235;BME280;6683;48.506;9.050;2022-08-19T04:50:34;97640.19;;;21.57;64.56
13235;BME280;6683;48.506;9.050;2022-08-19T04:53:39;97638.59;;;21.56;64.78
13235;BME280;6683;48.506;9.050;2022-08-19T04:56:42;97645.31;;;21.59;65.03
13235;BME280;6683;48.506;9.050;2022-08-19T04:59:46;97654.69;;;21.61;64.81
13235;BME280;6683;48.506;9.050;2022-08-19T05:02:49;97659.81;;;21.63;64.99
13235;BME280;6683;48.506;9.050;2022-08-19T05:05:51;97668.69;;;21.63;64.87
13235;BME280;6683;48.506;9.050;2022-08-19T05:08:54;97671.09;;;21.65;65.11
13235;BME280;6683;48.506;9.050;2022-08-19T05:11:56;97678.06;;;21.66;65.03
13235;BME280;6683;48.506;9.050;2022-08-19T05:15:08;97687.75;;;21.67;64.94
13235;BME280;6683;48.506;9.050;2022-08-19T05:18:11;97701.72;;;21.69;65.00
13235;BME280;6683;48.506;9.050;2022-08-19T05:21:31;97709.78;;;21.69;65.16
13235;BME280;6683;48.506;9.050;2022-08-19T05:24:51;97719.44;;;21.70;65.25
13235;BME280;6683;48.506;9.050;2022-08-19T05:27:53;97725.34;;;21.72;65.31
13235;BME280;6683;48.506;9.050;2022-08-19T05:30:57;97721.31;;;21.74;65.27
13235;BME280;6683;48.506;9.050;2022-08-19T05:34:01;97721.59;;;21.78;65.18
13235;BME280;6683;48.506;9.050;2022-08-19T05:37:05;97730.19;;;21.80;65.20
13235;BME280;6683;48.506;9.050;2022-08-19T05:40:10;97734.00;;;21.84;65.28
13235;BME280;6683;48.506;9.050;2022-08-19T05:43:12;97737.47;;;21.84;65.08
13235;BME280;6683;48.506;9.050;2022-08-19T05:46:19;97740.69;;;21.86;65.09
13235;BME280;6683;48.506;9.050;2022-08-19T05:49:23;97735.06;;;21.88;65.28
13235;BME280;6683;48.506;9.050;2022-08-19T05:52:26;97739.88;;;21.91;65.07
13235;BME280;6683;48.506;9.050;2022-08-19T05:55:28;97728.88;;;21.92;65.53
13235;BME280;6683;48.506;9.050;2022-08-19T05:58:31;97728.59;;;21.94;65.17
13235;BME280;6683;48.506;9.050;2022-08-19T06:01:36;97729.97;;;21.96;65.16
13235;BME280;6683;48.506;9.050;2022-08-19T06:04:38;97735.59;;;22.00;65.20
13235;BME280;6683;48.506;9.050;2022-08-19T06:07:43;97738.81;;;22.02;65.20
13235;BME280;6683;48.506;9.050;2022-08-19T06:10:46;97739.63;;;22.02;65.50
13235;BME280;6683;48.506;9.050;2022-08-19T06:13:51;97737.47;;;22.04;65.47
13235;BME280;6683;48.506;9.050;2022-08-19T06:16:57;97735.31;;;22.06;65.47
13235;BME280;6683;48.506;9.050;2022-08-19T06:20:03;97728.31;;;22.10;65.31
13235;BME280;6683;48.506;9.050;2022-08-19T06:23:07;97744.97;;;22.12;65.37
13235;BME280;6683;48.506;9.050;2022-08-19T06:26:12;97734.75;;;22.14;65.51
13235;BME280;6683;48.506;9.050;2022-08-19T06:29:17;97735.28;;;22.16;65.64
13235;BME280;6683;48.506;9.050;2022-08-19T06:32:21;97741.19;;;22.18;65.33
13235;BME280;6683;48.506;9.050;2022-08-19T06:35:24;97744.16;;;22.22;65.22
13235;BME280;6683;48.506;9.050;2022-08-19T06:38:26;97749.00;;;22.25;65.49
13235;BME280;6683;48.506;9.050;2022-08-19T06:41:29;97735.53;;;22.30;65.41
13235;BME280;6683;48.506;9.050;2022-08-19T06:44:39;97743.06;;;22.33;65.52
13235;BME280;6683;48.506;9.050;2022-08-19T06:47:43;97745.75;;;22.38;65.29
13235;BME280;6683;48.506;9.050;2022-08-19T06:50:49;97741.44;;;22.42;65.43
13235;BME280;6683;48.506;9.050;2022-08-19T06:53:54;97742.50;;;22.46;65.06
13235;BME280;6683;48.506;9.050;2022-08-19T06:56:58;97750.81;;;22.50;65.10
13235;BME280;6683;48.506;9.050;2022-08-19T07:00:04;97749.47;;;22.52;65.16
13235;BME280;6683;48.506;9.050;2022-08-19T07:03:13;97752.94;;;22.58;65.09
13235;BME280;6683;48.506;9.050;2022-08-19T07:06:18;97759.94;;;22.64;64.78
13235;BME280;6683;48.506;9.050;2022-08-19T07:09:20;97756.44;;;22.68;64.71
13235;BME280;6683;48.506;9.050;2022-08-19T07:12:23;97754.00;;;22.72;64.79
13235;BME280;6683;48.506;9.050;2022-08-19T07:15:25;97757.22;;;22.74;64.79
13235;BME280;6683;48.506;9.050;2022-08-19T07:18:29;97754.28;;;22.75;64.62
13235;BME280;6683;48.506;9.050;2022-08-19T07:21:32;97753.16;;;22.76;64.96
13235;BME280;6683;48.506;9.050;2022-08-19T07:24:35;97752.63;;;22.79;64.84
13235;BME280;6683;48.506;9.050;2022-08-19T07:27:38;97757.75;;;22.81;64.88
13235;BME280;6683;48.506;9.050;2022-08-19T07:30:41;97749.91;;;22.84;65.27
13235;BME280;6683;48.506;9.050;2022-08-19T07:33:45;97749.66;;;22.86;65.22
13235;BME280;6683;48.506;9.050;2022-08-19T07:36:49;97748.28;;;22.88;64.63
13235;BME280;6683;48.506;9.050;2022-08-19T07:39:52;97757.44;;;22.92;64.78
13235;BME280;6683;48.506;9.050;2022-08-19T07:42:54;97752.84;;;22.93;65.14
13235;BME280;6683;48.506;9.050;2022-08-19T07:45:57;97763.59;;;22.93;65.22
13235;BME280;6683;48.506;9.050;2022-08-19T07:49:02;97757.16;;;22.94;65.20
13235;BME280;6683;48.506;9.050;2022-08-19T07:52:08;97755.81;;;22.96;64.92
13235;BME280;6683;48.506;9.050;2022-08-19T07:55:11;97746.88;;;23.01;64.93
13235;BME280;6683;48.506;9.050;2022-08-19T07:58:17;97751.19;;;23.07;65.11
13235;BME280;6683;48.506;9.050;2022-08-19T08:01:25;97751.41;;;23.11;64.94
13235;BME280;6683;48.506;9.050;2022-08-19T08:04:30;97755.97;;;23.15;64.60
13235;BME280;6683;48.506;9.050;2022-08-19T08:07:50;97758.38;;;23.17;64.72
13235;BME280;6683;48.506;9.050;2022-08-19T08:11:10;97765.38;;;23.18;64.52
13235;BME280;6683;48.506;9.050;2022-08-19T08:14:13;97764.59;;;23.17;64.65
13235;BME280;6683;48.506;9.050;2022-08-19T08:17:19;97759.75;;;23.14;64.45
13235;BME280;6683;48.506;9.050;2022-08-19T08:20:23;97763.25;;;23.15;64.55
13235;BME280;6683;48.506;9.050;2022-08-19T08:23:26;97765.94;;;23.15;64.44
13235;BME280;6683;48.506;9.050;2022-08-19T08:26:30;97763.53;;;23.13;64.51
13235;BME280;6683;48.506;9.050;2022-08-19T08:29:32;97771.31;;;23.15;64.38
13235;BME280;6683;48.506;9.050;2022-08-19T08:32:35;97766.22;;;23.13;64.44
13235;BME280;6683;48.506;9.050;2022-08-19T08:35:40;97768.91;;;23.13;64.58
13235;BME280;6683;48.506;9.050;2022-08-19T08:38:45;97764.84;;;23.16;64.30
13235;BME280;6683;48.506;9.050;2022-08-19T08:42:05;97761.09;;;23.12;64.52
13235;BME280;6683;48.506;9.050;2022-08-19T08:45:13;97769.75;;;23.09;64.72
13235;BME280;6683;48.506;9.050;2022-08-19T08:48:23;97771.91;;;23.07;64.70
13235;BME280;6683;48.506;9.050;2022-08-19T08:51:46;97772.19;;;23.00;64.38
13235;BME280;6683;48.506;9.050;2022-08-19T08:54:53;97778.41;;;22.95;64.76
13235;BME280;6683;48.506;9.050;2022-08-19T08:58:03;97771.97;;;22.91;64.99
13235;BME280;6683;48.506;9.050;2022-08-19T09:01:08;97780.84;;;22.92;64.89
13235;BME280;6683;48.506;9.050;2022-08-19T09:04:12;97778.97;;;22.87;64.94
13235;BME280;6683;48.506;9.050;2022-08-19T09:07:34;97773.06;;;22.85;65.14
13235;BME280;6683;48.506;9.050;2022-08-19T09:10:45;97778.97;;;22.82;65.13
13235;BME280;6683;48.506;9.050;2022-08-19T09:14:08;97786.56;;;22.75;65.05
13235;BME280;6683;48.506;9.050;2022-08-19T09:17:14;97785.50;;;22.71;65.27
13235;BME280;6683;48.506;9.050;2022-08-19T09:20:22;97789.81;;;22.67;65.31
13235;BME280;6683;48.506;9.050;2022-08-19T09:23:26;97784.97;;;22.64;65.52
13235;BME280;6683;48.506;9.050;2022-08-19T09:26:29;97783.09;;;22.60;65.67
13235;BME280;6683;48.506;9.050;2022-08-19T09:29:32;97787.09;;;22.57;65.72
13235;BME280;6683;48.506;9.050;2022-08-19T09:32:35;97793.03;;;22.54;66.20
13235;BME280;6683;48.506;9.050;2022-08-19T09:35:37;97799.22;;;22.50;66.34
13235;BME280;6683;48.506;9.050;2022-08-19T09:38:42;97798.16;;;22.46;66.79
13235;BME280;6683;48.506;9.050;2022-08-19T09:41:45;97801.94;;;22.40;66.44
13235;BME280;6683;48.506;9.050;2022-08-19T09:44:47;97809.22;;;22.34;66.98
13235;BME280;6683;48.506;9.050;2022-08-19T09:47:51;97808.94;;;22.31;67.22
13235;BME280;6683;48.506;9.050;2022-08-19T09:50:54;97804.38;;;22.31;67.70
13235;BME280;6683;48.506;9.050;2022-08-19T09:54:02;97806.28;;;22.25;67.81
13235;BME280;6683;48.506;9.050;2022-08-19T09:57:05;97818.34;;;22.28;68.14
13235;BME280;6683;48.506;9.050;2022-08-19T10:00:10;97811.91;;;22.29;68.52
13235;BME280;6683;48.506;9.050;2022-08-19T10:03:12;97814.84;;;22.33;68.31
13235;BME280;6683;48.506;9.050;2022-08-19T10:06:15;97815.38;;;22.35;68.62
13235;BME280;6683;48.506;9.050;2022-08-19T10:09:19;97818.38;;;22.38;69.15
13235;BME280;6683;48.506;9.050;2022-08-19T10:12:21;97818.91;;;22.40;68.76
13235;BME280;6683;48.506;9.050;2022-08-19T10:15:23;97824.00;;;22.37;68.89
13235;BME280;6683;48.506;9.050;2022-08-19T10:18:26;97822.13;;;22.37;69.43
13235;BME280;6683;48.506;9.050;2022-08-19T10:21:31;97828.31;;;22.38;69.57
13235;BME280;6683;48.506;9.050;2022-08-19T10:24:36;97828.03;;;22.39;69.44
13235;BME280;6683;48.506;9.050;2022-08-19T10:27:38;97820.50;;;22.41;69.48
13235;BME280;6683;48.506;9.050;2022-08-19T10:30:41;97820.50;;;22.41;69.70
13235;BME280;6683;48.506;9.050;2022-08-19T10:33:44;97824.81;;;22.42;69.66
13235;BME280;6683;48.506;9.050;2022-08-19T10:36:46;97818.06;;;22.45;69.79
13235;BME280;6683;48.506;9.050;2022-08-19T10:39:50;97816.47;;;22.44;70.44
13235;BME280;6683;48.506;9.050;2022-08-19T10:42:53;97816.72;;;22.47;70.34
13235;BME280;6683;48.506;9.050;2022-08-19T10:45:56;97815.38;;;22.50;70.37
13235;BME280;6683;48.506;9.050;2022-08-19T10:49:01;97811.34;;;22.47;70.43
13235;BME280;6683;48.506;9.050;2022-08-19T10:52:04;97818.06;;;22.45;70.77
13235;BME280;6683;48.506;9.050;2022-08-19T10:55:25;97818.06;;;22.45;70.88
13235;BME280;6683;48.506;9.050;2022-08-19T10:58:45;97816.72;;;22.47;70.99
13235;BME280;6683;48.506;9.050;2022-08-19T11:01:48;97815.91;;;22.52;71.32
13235;BME280;6683;48.506;9.050;2022-08-19T11:04:51;97813.78;;;22.59;71.39
13235;BME280;6683;48.506;9.050;2022-08-19T11:07:53;97811.06;;;22.64;71.44
13235;BME280;6683;48.506;9.050;2022-08-19T11:11:00;97807.59;;;22.63;71.35
13235;BME280;6683;48.506;9.050;2022-08-19T11:14:03;97807.84;;;22.62;71.69
13235;BME280;6683;48.506;9.050;2022-08-19T11:17:06;97807.03;;;22.61;71.51
13235;BME280;6683;48.506;9.050;2022-08-19T11:20:10;97807.03;;;22.61;71.97
13235;BME280;6683;48.506;9.050;2022-08-19T11:23:13;97816.72;;;22.62;71.83
13235;BME280;6683;48.506;9.050;2022-08-19T11:26:18;97812.97;;;22.63;72.15
13235;BME280;6683;48.506;9.050;2022-08-19T11:29:22;97815.09;;;22.66;72.29
13235;BME280;6683;48.506;9.050;2022-08-19T11:32:26;97819.94;;;22.69;72.56
13235;BME280;6683;48.506;9.050;2022-08-19T11:35:29;97815.34;;;22.70;72.27
13235;BME280;6683;48.506;9.050;2022-08-19T11:38:32;97815.34;;;22.70;72.58
13235;BME280;6683;48.506;9.050;2022-08-19T11:41:36;97816.41;;;22.74;72.79
13235;BME280;6683;48.506;9.050;2022-08-19T11:44:38;97812.38;;;22.76;72.47
13235;BME280;6683;48.506;9.050;2022-08-19T11:47:40;97811.03;;;22.79;72.47
13235;BME280;6683;48.506;9.050;2022-08-19T11:50:42;97817.47;;;22.83;73.00
13235;BME280;6683;48.506;9.050;2022-08-19T11:53:45;97817.19;;;22.84;73.10
13235;BME280;6683;48.506;9.050;2022-08-19T11:56:50;97813.97;;;22.82;72.78
13235;BME280;6683;48.506;9.050;2022-08-19T11:59:52;97808.59;;;22.82;72.70
13235;BME280;6683;48.506;9.050;2022-08-19T12:02:54;97809.41;;;22.83;73.33
13235;BME280;6683;48.506;9.050;2022-08-19T12:05:56;97806.44;;;22.84;73.00
13235;BME280;6683;48.506;9.050;2022-08-19T12:09:02;97815.59;;;22.83;72.89
13235;BME280;6683;48.506;9.050;2022-08-19T12:12:07;97813.97;;;22.82;72.75
13235;BME280;6683;48.506;9.050;2022-08-19T12:15:11;97811.03;;;22.79;73.03
13235;BME280;6683;48.506;9.050;2022-08-19T12:18:15;97808.63;;;22.77;73.25
13235;BME280;6683;48.506;9.050;2022-08-19T12:21:20;97806.75;;;22.73;73.47
13235;BME280;6683;48.506;9.050;2022-08-19T12:24:23;97805.94;;;22.72;73.14
13235;BME280;6683;48.506;9.050;2022-08-19T12:27:27;97805.13;;;22.72;73.46
13235;BME280;6683;48.506;9.050;2022-08-19T12:30:30;97800.03;;;22.70;73.70
13235;BME280;6683;48.506;9.050;2022-08-19T12:33:32;97798.41;;;22.69;73.35
13235;BME280;6683;48.506;9.050;2022-08-19T12:36:35;97804.59;;;22.70;73.47
13235;BME280;6683;48.506;9.050;2022-08-19T12:39:41;97806.75;;;22.68;73.37
13235;BME280;6683;48.506;9.050;2022-08-19T12:42:45;97801.38;;;22.68;73.64
13235;BME280;6683;48.506;9.050;2022-08-19T12:45:51;97807.84;;;22.67;73.38
13235;BME280;6683;48.506;9.050;2022-08-19T12:48:53;97812.41;;;22.66;73.94
13235;BME280;6683;48.506;9.050;2022-08-19T12:51:56;97815.09;;;22.66;73.44
13235;BME280;6683;48.506;9.050;2022-08-19T12:54:59;97807.59;;;22.63;73.76
13235;BME280;6683;48.506;9.050;2022-08-19T12:58:03;97797.34;;;22.60;74.02
13235;BME280;6683;48.506;9.050;2022-08-19T13:01:08;97795.47;;;22.61;73.92
13235;BME280;6683;48.506;9.050;2022-08-19T13:04:11;97808.66;;;22.62;74.02
13235;BME280;6683;48.506;9.050;2022-08-19T13:07:13;97807.03;;;22.61;74.10
13235;BME280;6683;48.506;9.050;2022-08-19T13:10:19;97806.78;;;22.63;74.43
13235;BME280;6683;48.506;9.050;2022-08-19T13:13:22;97808.13;;;22.65;74.21
13235;BME280;6683;48.506;9.050;2022-08-19T13:16:27;97811.88;;;22.64;73.91
13235;BME280;6683;48.506;9.050;2022-08-19T13:19:29;97819.13;;;22.64;73.89
13235;BME280;6683;48.506;9.050;2022-08-19T13:22:32;97816.72;;;22.62;74.18
13235;BME280;6683;48.506;9.050;2022-08-19T13:25:36;97817.25;;;22.59;73.83
13235;BME280;6683;48.506;9.050;2022-08-19T13:28:42;97828.25;;;22.58;74.29
13235;BME280;6683;48.506;9.050;2022-08-19T13:32:02;97827.44;;;22.57;74.12
13235;BME280;6683;48.506;9.050;2022-08-19T13:35:22;97830.94;;;22.58;74.18
13235;BME280;6683;48.506;9.050;2022-08-19T13:38:24;97823.72;;;22.58;74.16
13235;BME280;6683;48.506;9.050;2022-08-19T13:41:27;97818.59;;;22.57;74.33
13235;BME280;6683;48.506;9.050;2022-08-19T13:44:31;97820.19;;;22.58;74.11
13235;BME280;6683;48.506;9.050;2022-08-19T13:47:35;97831.53;;;22.60;74.47
13235;BME280;6683;48.506;9.050;2022-08-19T13:50:44;97822.38;;;22.61;74.40
13235;BME280;6683;48.506;9.050;2022-08-19T13:53:48;97833.94;;;22.61;73.96
13235;BME280;6683;48.506;9.050;2022-08-19T13:56:51;97830.47;;;22.61;74.03
13235;BME280;6683;48.506;9.050;2022-08-19T13:59:55;97830.72;;;22.59;73.96
13235;BME280;6683;48.506;9.050;2022-08-19T14:02:58;97829.94;;;22.59;73.96
13235;BME280;6683;48.506;9.050;2022-08-19T14:06:01;97830.16;;;22.57;74.19
13235;BME280;6683;48.506;9.050;2022-08-19T14:09:03;97835.31;;;22.59;73.99
13235;BME280;6683;48.506;9.050;2022-08-19T14:12:07;97826.94;;;22.60;74.12
13235;BME280;6683;48.506;9.050;2022-08-19T14:15:13;97830.44;;;22.66;74.38
13235;BME280;6683;48.506;9.050;2022-08-19T14:18:17;97823.16;;;22.71;74.29
13235;BME280;6683;48.506;9.050;2022-08-19T14:21:22;97821.53;;;22.75;74.36
13235;BME280;6683;48.506;9.050;2022-08-19T14:24:25;97810.50;;;22.77;74.27
13235;BME280;6683;48.506;9.050;2022-08-19T14:27:28;97806.22;;;22.76;74.51
13235;BME280;6683;48.506;9.050;2022-08-19T14:30:34;97823.41;;;22.75;74.50
13235;BME280;6683;48.506;9.050;2022-08-19T14:33:38;97822.06;;;22.77;74.32
13235;BME280;6683;48.506;9.050;2022-08-19T14:36:41;97816.94;;;22.81;74.72
13235;BME280;6683;48.506;9.050;2022-08-19T14:39:44;97809.66;;;22.86;74.67
13235;BME280;6683;48.506;9.050;2022-08-19T14:42:47;97818.25;;;22.93;74.61
13235;BME280;6683;48.506;9.050;2022-08-19T14:45:51;97817.97;;;23.00;74.42
13235;BME280;6683;48.506;9.050;2022-08-19T14:48:54;97813.34;;;23.05;74.26
13235;BME280;6683;48.506;9.050;2022-08-19T14:51:56;97812.81;;;23.09;74.39
13235;BME280;6683;48.506;9.050;2022-08-19T14:54:59;97812.25;;;23.12;74.24
13235;BME280;6683;48.506;9.050;2022-08-19T14:58:01;97816.00;;;23.16;74.30
13235;BME280;6683;48.506;9.050;2022-08-19T15:01:05;97815.75;;;23.17;74.16
13235;BME280;6683;48.506;9.050;2022-08-19T15:04:07;97813.06;;;23.17;74.26
13235;BME280;6683;48.506;9.050;2022-08-19T15:07:10;97818.16;;;23.19;74.37
13235;BME280;6683;48.506;9.050;2022-08-19T15:10:14;97823.25;;;23.20;73.97
13235;BME280;6683;48.506;9.050;2022-08-19T15:13:17;97815.19;;;23.20;74.27
13235;BME280;6683;48.506;9.050;2022-08-19T15:16:23;97812.22;;;23.22;74.18
13235;BME280;6683;48.506;9.050;2022-08-19T15:19:26;97821.38;;;23.26;74.53
13235;BME280;6683;48.506;9.050;2022-08-19T15:22:29;97817.56;;;23.27;74.40
13235;BME280;6683;48.506;9.050;2022-08-19T15:25:31;97821.31;;;23.31;74.35
13235;BME280;6683;48.506;9.050;2022-08-19T15:28:35;97813.81;;;23.33;74.49
13235;BME280;6683;48.506;9.050;2022-08-19T15:31:38;97814.84;;;23.37;74.53
13235;BME280;6683;48.506;9.050;2022-08-19T15:34:41;97823.75;;;23.42;74.63
13235;BME280;6683;48.506;9.050;2022-08-19T15:37:44;97824.78;;;23.46;74.28
13235;BME280;6683;48.506;9.050;2022-08-19T15:40:47;97816.94;;;23.50;74.34
13235;BME280;6683;48.506;9.050;2022-08-19T15:43:51;97812.91;;;23.52;74.11
13235;BME280;6683;48.506;9.050;2022-08-19T15:46:55;97828.78;;;23.54;74.12
13235;BME280;6683;48.506;9.050;2022-08-19T15:49:58;97830.41;;;23.55;74.21
13235;BME280;6683;48.506;9.050;2022-08-19T15:53:04;97821.78;;;23.53;74.29
13235;BME280;6683;48.506;9.050;2022-08-19T15:56:08;97830.41;;;23.55;74.08
13235;BME280;6683;48.506;9.050;2022-08-19T15:59:11;97830.13;;;23.56;74.38
13235;BME280;6683;48.506;9.050;2022-08-19T16:02:33;97831.44;;;23.59;74.47
13235;BME280;6683;48.506;9.050;2022-08-19T16:05:52;97836.00;;;23.63;74.25
13235;BME280;6683;48.506;9.050;2022-08-19T16:09:13;97831.69;;;23.67;74.33
13235;BME280;6683;48.506;9.050;2022-08-19T16:12:15;97828.66;;;23.74;74.54
13235;BME280;6683;48.506;9.050;2022-08-19T16:15:18;97831.84;;;23.81;74.70
13235;BME280;6683;48.506;9.050;2022-08-19T16:18:23;97827.47;;;23.90;74.50
13235;BME280;6683;48.506;9.050;2022-08-19T16:21:28;97824.47;;;23.97;74.53
13235;BME280;6683;48.506;9.050;2022-08-19T16:24:33;97823.09;;;24.04;74.57
13235;BME280;6683;48.506;9.050;2022-08-19T16:27:35;97827.63;;;24.09;74.59
13235;BME280;6683;48.506;9.050;2022-08-19T16:30:39;97824.09;;;24.13;74.56